Holmen, WI (54636)

4:24 PM CST on February 05, 2016 (GMT -0600)
Holmen | | Change Station
CLOSE
Current Station
Personal Weather Station
Location: Holmen, WI
Elevation: 705 ft
Nearby Weather Stations

Elev 705 ft 43.96 °N, 91.26 °W | Updated 15 seconds ago

Partly Cloudy
Partly Cloudy
27.7 °F
Feels Like 24 °F
N
3.1
Wind Variable Wind from SSE
Gusts 3.1 mph

Today
High -- | Low -- °F
--% Chance of Precip.
Yesterday
High -- | Low -- °F
Precip. -- in
Pressure 30.38 in
Visibility 10.0 miles
Clouds Mostly Cloudy 9000 ft
Windchill 24 °F
Dew Point 19 °F
Humidity 69%
Rainfall 0.00 in
Snow Depth Not available.
7:18 AM 5:20 PM
Waning Crescent, 9% visible
METAR KLSE 052153Z 17008KT 10SM BKN090 M04/M10 A3031 RMK AO2 SLP285 T10391100
Pressure 30.38 in
Visibility 10.0 miles
Clouds Mostly Cloudy 9000 ft
Windchill 24 °F
Dew Point 19 °F
Humidity 69%
Rainfall 0.00 in
Snow Depth Not available.
7:18 AM 5:20 PM
Waning Crescent, 9% visible
METAR KLSE 052153Z 17008KT 10SM BKN090 M04/M10 A3031 RMK AO2 SLP285 T10391100

10-Day Weather Forecast

Almanac

Astronomy

Feb. 05, 2016 Rise Set
Actual Time
Civil Twilight
Nautical Twilight
Astronomical Twilight
Moon
Length of Visible Light
Length of Day
Tomorrow will be .
, % of the Moon is Illuminated

Today's Extremes

State Highs State Lows

Community

WunderPhotos

Upload Photos

1,890,878 photos uploaded!

WunderBlog® & News

Nearby

Air Quality

  Air Quality AQ Index Pollutant
Not available.

Snow Depth

Station Depth Elevation

Earthquake Activity

City Distance Mag. Time & Date
Minimum magnitude displayed is 2.5.

Coastal Water Temperatures

Place Temperature

Stations

Nearby Weather Stations

Station Location Temp. Windchill Dew Point Humidity Wind Precip. Elev Updated Type
                   

Watches & Warnings

There are currently no watches in effect.